Time;durP1;ratioP1;P1;durP2;ratioP2;P2;SDS_P1;SDS_P2;PMS_P1;PMS_P2;Temp;Humidity;BMP_temperature;BMP_pressure;BME280_temperature;BME280_humidity;BME280_pressure;Samples;Min_cycle;Max_cycle;Signal;HPM_P1;HPM_P2
2022/09/07 00:01:07;;;;;;;;;2.20;2.20;;;;;23.77;42.78;99412.38;5039825;28;8970;-84
2022/09/07 00:03:35;;;;;;;;;2.00;2.00;;;;;23.73;42.72;99424.75;5039758;28;8869;-84
2022/09/07 00:06:03;;;;;;;;;1.60;1.60;;;;;23.69;42.66;99463.47;5042677;28;9471;-84
2022/09/07 00:08:31;;;;;;;;;1.20;1.20;;;;;23.68;42.62;99565.97;5045841;28;8960;-85
2022/09/07 00:10:59;;;;;;;;;1.60;1.60;;;;;23.68;42.49;99570.59;5045761;28;8829;-85
2022/09/07 00:13:27;;;;;;;;;1.60;1.60;;;;;23.72;42.47;99599.00;5045856;28;8845;-85
2022/09/07 00:15:54;;;;;;;;;2.00;2.00;;;;;23.73;43.13;99614.28;5043187;28;8873;-85
2022/09/07 00:18:22;;;;;;;;;1.00;1.00;;;;;23.70;42.86;99603.84;5042697;28;8852;-84
2022/09/07 00:20:50;;;;;;;;;0.00;0.00;;;;;23.64;43.69;99613.69;5048191;28;8825;-85
2022/09/07 00:23:20;;;;;;;;;2.00;2.00;;;;;23.57;43.64;99618.31;5048321;28;8806;-85
2022/09/07 00:25:48;;;;;;;;;1.40;1.40;;;;;23.49;44.18;99643.00;5047604;28;8817;-86
2022/09/07 00:28:20;;;;;;;;;0.00;0.00;;;;;23.36;44.61;99636.78;5042974;28;8837;-84
2022/09/07 00:30:48;;;;;;;;;0.00;0.00;;;;;23.21;44.72;99641.59;5041727;28;8829;-84
2022/09/07 00:33:16;;;;;;;;;0.00;0.00;;;;;23.05;45.37;99652.81;5045833;28;9615;-88
2022/09/07 00:35:45;;;;;;;;;0.60;0.20;;;;;22.88;45.83;99640.69;5043672;28;8825;-84
2022/09/07 00:38:12;;;;;;;;;0.00;0.00;;;;;22.76;46.31;99654.06;5045887;28;8822;-85
2022/09/07 00:40:40;;;;;;;;;0.60;0.00;;;;;22.63;46.66;99647.78;5047061;28;8861;-85
2022/09/07 00:43:09;;;;;;;;;0.00;0.00;;;;;22.53;47.02;99650.06;5049188;28;8815;-85
2022/09/07 00:45:37;;;;;;;;;0.00;0.00;;;;;22.44;46.80;99660.25;5046268;28;8849;-85
2022/09/07 00:48:05;;;;;;;;;0.00;0.00;;;;;22.38;47.17;99671.06;5044767;28;8798;-85
2022/09/07 00:50:32;;;;;;;;;0.00;0.00;;;;;22.29;47.57;99666.84;5044820;28;8964;-85
2022/09/07 00:53:00;;;;;;;;;0.00;0.00;;;;;22.23;47.91;99659.53;5047746;28;8825;-85
2022/09/07 00:55:28;;;;;;;;;0.00;0.00;;;;;22.18;47.74;99654.69;5046327;28;8853;-85
2022/09/07 00:57:55;;;;;;;;;0.00;0.00;;;;;22.12;47.81;99658.25;5044560;28;8850;-85
2022/09/07 01:00:23;;;;;;;;;0.00;0.00;;;;;22.08;48.25;99658.84;5047683;28;8832;-86
2022/09/07 01:02:52;;;;;;;;;0.00;0.00;;;;;22.02;48.23;99662.38;5045782;28;8826;-86
2022/09/07 01:05:19;;;;;;;;;0.00;0.00;;;;;21.97;48.67;99643.97;5047182;28;8860;-85
2022/09/07 01:07:47;;;;;;;;;0.00;0.00;;;;;21.94;48.10;99644.38;5049349;28;8840;-85
2022/09/07 01:10:15;;;;;;;;;0.00;0.00;;;;;21.92;48.40;99635.59;5048609;28;8846;-85
2022/09/07 01:12:43;;;;;;;;;0.00;0.00;;;;;21.92;48.54;99632.91;5046817;28;8842;-85
2022/09/07 01:15:11;;;;;;;;;0.60;0.60;;;;;21.93;48.23;99639.16;5047313;28;8854;-85
2022/09/07 01:17:39;;;;;;;;;0.00;0.00;;;;;21.94;48.27;99640.84;5048139;28;8845;-85
2022/09/07 01:20:07;;;;;;;;;0.00;0.00;;;;;21.93;48.21;99636.47;5047842;28;8836;-85
2022/09/07 01:22:35;;;;;;;;;0.00;0.00;;;;;21.90;47.98;99626.00;5047086;28;8926;-85
2022/09/07 01:25:03;;;;;;;;;0.00;0.00;;;;;21.86;48.24;99641.00;5048759;28;8906;-85
2022/09/07 01:27:30;;;;;;;;;0.00;0.00;;;;;21.79;48.73;99640.94;5046515;28;8838;-85
2022/09/07 01:29:58;;;;;;;;;0.00;0.00;;;;;21.63;49.01;99651.28;5047020;28;8842;-85
2022/09/07 01:32:26;;;;;;;;;1.00;1.00;;;;;21.21;49.74;99654.09;5047448;28;8849;-85
2022/09/07 01:34:54;;;;;;;;;0.00;0.00;;;;;20.73;51.11;99664.88;5041539;28;8829;-85
2022/09/07 01:37:22;;;;;;;;;0.00;0.00;;;;;20.28;52.09;99667.91;5039583;28;9541;-85
2022/09/07 01:39:50;;;;;;;;;0.00;0.00;;;;;19.94;52.70;99676.63;5040725;28;8820;-85
2022/09/07 01:42:31;;;;;;;;;0.00;0.00;;;;;19.73;53.17;99659.50;5047742;28;8848;-85
2022/09/07 01:44:59;;;;;;;;;0.00;0.00;;;;;19.57;53.69;99665.91;5051736;28;8850;-85
2022/09/07 01:47:26;;;;;;;;;0.00;0.00;;;;;19.46;53.90;99668.22;5050169;28;8836;-84
2022/09/07 01:49:54;;;;;;;;;1.00;1.00;;;;;19.37;54.20;99655.84;5044176;28;8925;-83
2022/09/07 01:52:22;;;;;;;;;0.00;0.00;;;;;19.29;54.46;99643.28;5038586;28;8860;-84
2022/09/07 01:54:50;;;;;;;;;0.00;0.00;;;;;19.19;54.72;99648.06;5037263;28;8872;-83
2022/09/07 01:57:17;;;;;;;;;0.00;0.00;;;;;19.09;55.12;99642.06;5035737;28;8829;-83
2022/09/07 01:59:45;;;;;;;;;0.00;0.00;;;;;19.04;54.94;99638.25;5037028;28;8851;-83
2022/09/07 02:02:15;;;;;;;;;0.00;0.00;;;;;18.97;55.29;99621.94;5037412;28;8825;-83
2022/09/07 02:04:43;;;;;;;;;0.00;0.00;;;;;18.91;55.54;99611.03;5037507;28;8834;-83
2022/09/07 02:07:11;;;;;;;;;2.20;2.20;;;;;18.87;55.77;99604.31;5037788;28;8836;-84
2022/09/07 02:09:38;;;;;;;;;0.00;0.00;;;;;18.82;56.38;99580.59;5039636;28;8848;-84
2022/09/07 02:12:06;;;;;;;;;0.40;0.00;;;;;18.80;56.46;99571.00;5040376;28;8915;-84
2022/09/07 02:14:34;;;;;;;;;0.00;0.00;;;;;18.84;56.39;99561.53;5038663;28;8846;-83
2022/09/07 02:17:02;;;;;;;;;0.00;0.00;;;;;18.89;56.76;99572.63;5039294;28;9598;-83
2022/09/07 02:19:30;;;;;;;;;0.00;0.00;;;;;18.91;56.33;99587.56;5037690;28;8817;-83
2022/09/07 02:21:58;;;;;;;;;0.00;0.00;;;;;18.88;56.43;99589.84;5038940;28;9529;-83
2022/09/07 02:24:25;;;;;;;;;0.80;0.80;;;;;18.90;56.67;99569.72;5038644;28;8862;-83
2022/09/07 02:26:53;;;;;;;;;0.00;0.00;;;;;18.97;56.50;99562.56;5036855;28;8817;-83
2022/09/07 02:29:21;;;;;;;;;0.40;0.40;;;;;19.04;56.27;99536.50;5037446;28;8842;-83
2022/09/07 02:31:50;;;;;;;;;0.00;0.00;;;;;19.12;56.49;99532.88;5035476;28;8822;-83
2022/09/07 02:34:18;;;;;;;;;0.00;0.00;;;;;19.17;56.20;99520.50;5034887;28;8868;-83
2022/09/07 02:36:46;;;;;;;;;0.00;0.00;;;;;19.20;56.13;99525.53;5034243;28;8861;-83
2022/09/07 02:39:14;;;;;;;;;0.00;0.00;;;;;19.26;56.02;99522.09;5034326;28;8956;-84
2022/09/07 02:41:42;;;;;;;;;0.00;0.00;;;;;19.32;56.35;99510.56;5034589;28;8964;-83
2022/09/07 02:44:10;;;;;;;;;0.20;0.20;;;;;19.39;56.19;99500.69;5034157;28;8841;-83
2022/09/07 02:46:37;;;;;;;;;0.00;0.00;;;;;19.41;56.12;99501.31;5034630;28;8844;-83
2022/09/07 02:49:05;;;;;;;;;0.40;0.40;;;;;19.40;56.60;99488.84;5034240;28;8837;-83
2022/09/07 02:51:33;;;;;;;;;0.00;0.00;;;;;19.39;56.10;99486.31;5036274;28;8856;-84
2022/09/07 02:54:01;;;;;;;;;1.00;0.40;;;;;19.39;56.45;99486.31;5037486;28;8948;-84
2022/09/07 02:56:29;;;;;;;;;0.00;0.00;;;;;19.37;56.46;99464.94;5037510;28;8838;-84
2022/09/07 02:58:56;;;;;;;;;1.00;1.00;;;;;19.34;56.86;99467.16;5037507;28;8829;-84
2022/09/07 03:01:24;;;;;;;;;1.00;0.00;;;;;19.31;56.11;99456.72;5037558;28;8821;-84
2022/09/07 03:03:52;;;;;;;;;1.00;1.00;;;;;19.28;56.63;99457.13;5037690;28;8848;-84
2022/09/07 03:06:20;;;;;;;;;0.40;0.00;;;;;19.24;56.45;99451.25;5037774;28;8960;-84
2022/09/07 03:08:48;;;;;;;;;0.00;0.00;;;;;19.20;57.00;99439.16;5037733;28;8960;-84
2022/09/07 03:11:15;;;;;;;;;0.20;0.20;;;;;19.21;56.71;99432.72;5038170;28;8995;-84
2022/09/07 03:13:43;;;;;;;;;0.20;0.20;;;;;19.21;57.03;99424.63;5038158;28;8846;-84
2022/09/07 03:16:11;;;;;;;;;1.00;1.00;;;;;19.20;57.08;99424.81;5037918;28;8836;-85
2022/09/07 03:18:39;;;;;;;;;0.40;0.40;;;;;19.13;56.83;99427.41;5039440;28;8837;-84
2022/09/07 03:21:07;;;;;;;;;1.00;1.00;;;;;19.07;57.43;99430.88;5038159;28;8951;-84
2022/09/07 03:23:36;;;;;;;;;0.00;0.00;;;;;19.01;57.48;99428.91;5037923;28;8842;-84
2022/09/07 03:26:04;;;;;;;;;1.00;1.00;;;;;18.97;57.50;99430.31;5037730;28;8826;-84
2022/09/07 03:28:31;;;;;;;;;1.00;1.00;;;;;18.94;57.85;99448.72;5037370;28;8957;-84
2022/09/07 03:30:59;;;;;;;;;0.40;0.40;;;;;18.89;58.02;99438.50;5037745;28;8851;-85
2022/09/07 03:33:27;;;;;;;;;1.00;0.00;;;;;18.85;58.08;99449.84;5037091;28;8926;-84
2022/09/07 03:35:55;;;;;;;;;1.00;0.00;;;;;18.80;57.97;99447.72;5037222;28;8960;-85
2022/09/07 03:38:23;;;;;;;;;0.00;0.00;;;;;18.78;58.51;99449.78;5037673;28;8845;-84
2022/09/07 03:40:50;;;;;;;;;0.00;0.00;;;;;18.77;58.27;99447.25;5036926;28;8909;-85
2022/09/07 03:43:23;;;;;;;;;1.00;1.00;;;;;18.74;58.11;99447.63;5036843;28;8969;-85
2022/09/07 03:45:50;;;;;;;;;0.40;0.40;;;;;18.71;58.10;99454.25;5036139;28;8849;-84
2022/09/07 03:48:18;;;;;;;;;0.00;0.00;;;;;18.69;58.71;99456.28;5036838;28;8822;-85
2022/09/07 03:50:46;;;;;;;;;1.00;1.00;;;;;18.65;58.60;99454.97;5036398;28;8837;-85
2022/09/07 03:53:14;;;;;;;;;0.80;0.00;;;;;18.61;58.63;99456.34;5036140;28;8964;-85
2022/09/07 03:55:41;;;;;;;;;0.80;0.80;;;;;18.57;58.43;99456.91;5036184;28;9625;-85
2022/09/07 03:58:09;;;;;;;;;0.80;0.80;;;;;18.51;58.91;99457.66;5036164;28;8953;-85
2022/09/07 04:00:37;;;;;;;;;1.00;1.00;;;;;18.46;58.83;99454.69;5036491;28;8858;-85
2022/09/07 04:03:05;;;;;;;;;1.00;0.20;;;;;18.42;59.03;99450.66;5035480;28;8845;-85
2022/09/07 04:05:33;;;;;;;;;1.00;1.00;;;;;18.40;59.33;99461.66;5036916;28;9487;-85
2022/09/07 04:08:00;;;;;;;;;1.00;1.00;;;;;18.38;59.26;99452.06;5036762;28;8833;-85
2022/09/07 04:10:28;;;;;;;;;1.00;1.00;;;;;18.36;59.19;99443.31;5036348;28;8956;-85
2022/09/07 04:13:00;;;;;;;;;0.80;0.80;;;;;18.35;58.85;99434.38;5036733;28;8845;-85
2022/09/07 04:15:28;;;;;;;;;1.00;1.00;;;;;18.34;58.93;99440.81;5038773;28;9522;-85
2022/09/07 04:17:55;;;;;;;;;1.00;0.60;;;;;18.30;59.60;99428.69;5036458;28;8883;-85
2022/09/07 04:20:24;;;;;;;;;1.00;1.00;;;;;18.28;59.60;99428.00;5036358;28;8826;-85
2022/09/07 04:22:52;;;;;;;;;0.40;0.40;;;;;18.26;59.65;99434.59;5036523;28;8830;-85
2022/09/07 04:25:20;;;;;;;;;1.00;1.00;;;;;18.22;59.14;99431.44;5039132;28;8846;-85
2022/09/07 04:27:48;;;;;;;;;1.00;1.00;;;;;18.18;59.62;99424.75;5036786;28;8968;-85
2022/09/07 04:30:16;;;;;;;;;1.00;1.00;;;;;18.16;59.45;99434.88;5036795;28;8963;-85
2022/09/07 04:32:44;;;;;;;;;1.00;1.00;;;;;18.13;59.52;99427.16;5036403;28;8813;-85
2022/09/07 04:35:12;;;;;;;;;1.00;1.00;;;;;18.09;59.50;99430.38;5036320;28;8939;-85
2022/09/07 04:37:40;;;;;;;;;0.40;0.40;;;;;18.07;60.32;99432.44;5036271;28;8980;-85
2022/09/07 04:40:08;;;;;;;;;1.40;1.00;;;;;18.04;59.79;99433.63;5036452;28;8840;-85
2022/09/07 04:42:36;;;;;;;;;1.80;1.80;;;;;18.02;59.87;99440.22;5035818;28;8829;-85
2022/09/07 04:45:03;;;;;;;;;1.00;1.00;;;;;17.99;60.00;99441.41;5035994;28;8855;-85
2022/09/07 04:47:31;;;;;;;;;0.00;0.00;;;;;17.97;59.52;99432.69;5035900;28;8861;-85
2022/09/07 04:49:59;;;;;;;;;1.00;0.80;;;;;17.98;60.08;99434.34;5035936;28;8830;-85
2022/09/07 04:52:27;;;;;;;;;1.00;1.00;;;;;17.96;60.20;99447.19;5036253;28;8829;-85
2022/09/07 04:54:54;;;;;;;;;0.00;0.00;;;;;17.96;59.79;99449.03;5037438;28;8865;-85
2022/09/07 04:57:25;;;;;;;;;0.00;0.00;;;;;17.95;60.08;99461.66;5036149;28;8837;-85
2022/09/07 04:59:53;;;;;;;;;1.00;1.00;;;;;17.93;60.21;99457.47;5035945;28;8833;-85
2022/09/07 05:02:21;;;;;;;;;1.00;1.00;;;;;17.90;60.18;99458.66;5035409;28;8826;-85
2022/09/07 05:04:49;;;;;;;;;0.40;0.40;;;;;17.90;60.19;99463.25;5035866;28;8822;-85
2022/09/07 05:07:17;;;;;;;;;1.00;1.00;;;;;17.92;60.29;99470.09;5035939;28;8849;-85
2022/09/07 05:09:45;;;;;;;;;3.00;1.40;;;;;17.93;60.45;99466.38;5036144;28;8841;-85
2022/09/07 05:12:12;;;;;;;;;0.20;0.20;;;;;17.94;59.82;99475.31;5036368;28;8937;-85
2022/09/07 05:14:40;;;;;;;;;3.40;2.20;;;;;17.95;60.19;99474.28;5034880;28;8863;-85
2022/09/07 05:17:08;;;;;;;;;3.40;3.20;;;;;17.98;59.86;99464.00;5035940;28;8857;-85
2022/09/07 05:19:36;;;;;;;;;1.00;1.00;;;;;18.02;59.60;99472.56;5035641;28;8926;-85
2022/09/07 05:22:04;;;;;;;;;4.00;2.60;;;;;18.02;60.26;99465.31;5035062;28;8829;-85
2022/09/07 05:24:33;;;;;;;;;1.40;1.00;;;;;18.03;60.17;99463.44;5035253;28;9638;-85
2022/09/07 05:27:02;;;;;;;;;2.20;2.20;;;;;18.03;60.02;99458.91;5035409;28;8836;-85
2022/09/07 05:29:30;;;;;;;;;1.00;1.00;;;;;18.06;59.93;99465.81;5035618;28;8838;-85
2022/09/07 05:32:18;;;;;;;;;3.00;1.80;;;;;18.07;59.90;99468.28;5035244;28;9581;-85
2022/09/07 05:34:45;;;;;;;;;1.00;0.80;;;;;18.12;60.02;99468.59;5035406;28;8826;-85
2022/09/07 05:37:17;;;;;;;;;1.00;1.00;;;;;18.16;59.52;99469.06;5034783;28;8856;-85
2022/09/07 05:39:45;;;;;;;;;1.00;1.00;;;;;18.19;59.69;99477.63;5034715;28;8872;-85
2022/09/07 05:42:13;;;;;;;;;3.00;3.00;;;;;18.18;59.59;99478.66;5034994;28;8853;-85
2022/09/07 05:44:41;;;;;;;;;4.80;4.80;;;;;18.17;60.16;99487.78;5034467;28;8814;-85
2022/09/07 05:47:14;;;;;;;;;3.00;3.00;;;;;18.12;60.22;99484.78;5035205;28;8837;-85
2022/09/07 05:49:42;;;;;;;;;1.40;1.40;;;;;18.12;60.50;99484.78;5034864;28;8842;-85
2022/09/07 05:52:09;;;;;;;;;1.00;1.00;;;;;18.13;60.30;99486.44;5034913;28;8929;-84
2022/09/07 05:54:37;;;;;;;;;3.20;3.20;;;;;18.14;60.31;99488.13;5034277;28;8952;-85
2022/09/07 05:57:06;;;;;;;;;3.20;3.20;;;;;18.13;60.23;99485.63;5036494;28;8936;-85
2022/09/07 05:59:33;;;;;;;;;3.00;3.00;;;;;18.13;60.72;99491.84;5017221;28;8842;-85
2022/09/07 06:02:01;;;;;;;;;3.00;2.60;;;;;18.16;60.61;99491.50;5034228;28;8825;-85
2022/09/07 06:04:29;;;;;;;;;4.80;3.00;;;;;18.20;60.30;99491.94;5034426;28;8837;-85
2022/09/07 06:06:57;;;;;;;;;3.20;3.00;;;;;18.26;60.04;99492.06;5034742;28;8813;-85
2022/09/07 06:09:45;;;;;;;;;1.00;1.00;;;;;18.32;60.47;99496.78;5034569;28;8840;-85
2022/09/07 06:12:33;;;;;;;;;2.60;2.60;;;;;18.38;60.53;99490.63;5034539;28;8853;-85
2022/09/07 06:15:01;;;;;;;;;3.00;3.00;;;;;18.45;60.08;99499.66;5034744;28;8940;-85
2022/09/07 06:17:28;;;;;;;;;3.40;3.40;;;;;18.53;59.58;99496.06;5035194;28;8845;-85
2022/09/07 06:19:56;;;;;;;;;2.80;2.80;;;;;18.63;59.52;99489.41;5035144;28;8960;-86
2022/09/07 06:22:24;;;;;;;;;2.80;2.80;;;;;18.76;59.78;99478.78;5034098;28;8825;-86
2022/09/07 06:24:57;;;;;;;;;3.00;2.20;;;;;18.92;59.13;99486.72;5033038;28;8826;-85
2022/09/07 06:27:25;;;;;;;;;3.00;3.00;;;;;19.04;59.33;99493.31;5033403;28;9578;-85
2022/09/07 06:29:52;;;;;;;;;4.00;4.00;;;;;19.19;59.26;99488.78;5032934;28;8951;-86
2022/09/07 06:32:20;;;;;;;;;2.20;1.20;;;;;19.32;58.92;99485.41;5033386;28;8818;-85
2022/09/07 06:35:08;;;;;;;;;4.00;3.40;;;;;19.39;58.75;99502.53;5033648;28;9479;-86
2022/09/07 06:37:36;;;;;;;;;3.20;2.20;;;;;19.44;59.00;99498.25;5033416;28;8940;-85
2022/09/07 06:40:04;;;;;;;;;1.80;1.80;;;;;19.46;59.08;99498.91;5033121;28;8822;-85
2022/09/07 06:42:31;;;;;;;;;2.20;1.20;;;;;19.47;59.14;99503.28;5033547;28;8868;-86
2022/09/07 06:44:59;;;;;;;;;3.60;3.60;;;;;19.51;58.40;99507.25;5032862;28;8874;-85
2022/09/07 06:47:27;;;;;;;;;4.00;4.00;;;;;19.56;58.60;99514.81;5033611;28;8846;-86
2022/09/07 06:49:55;;;;;;;;;2.40;2.40;;;;;19.62;58.69;99516.75;5033662;28;8976;-86
2022/09/07 06:52:22;;;;;;;;;3.60;3.60;;;;;19.68;58.67;99511.44;5033810;28;8834;-86
2022/09/07 06:54:50;;;;;;;;;2.00;2.00;;;;;19.81;58.57;99510.75;5033689;28;8877;-86
2022/09/07 06:57:26;;;;;;;;;2.00;2.00;;;;;19.94;58.64;99503.59;5033591;28;8830;-86
2022/09/07 06:59:53;;;;;;;;;2.00;1.60;;;;;20.11;58.00;99498.81;5033605;28;8829;-86
2022/09/07 07:02:21;;;;;;;;;4.80;2.00;;;;;20.25;58.17;99509.56;5033541;28;8850;-86
2022/09/07 07:04:49;;;;;;;;;1.20;1.00;;;;;20.45;58.16;99502.47;5033685;28;8888;-86
2022/09/07 07:07:17;;;;;;;;;1.40;1.40;;;;;20.64;57.46;99509.88;5033124;28;8830;-86
2022/09/07 07:09:44;;;;;;;;;2.00;2.00;;;;;20.77;57.61;99502.72;5033602;28;8898;-86
2022/09/07 07:12:12;;;;;;;;;1.60;1.60;;;;;20.93;57.08;99513.28;5033424;28;8849;-86
2022/09/07 07:14:40;;;;;;;;;2.00;2.00;;;;;21.01;57.16;99513.13;5033559;28;8947;-86
2022/09/07 07:17:11;;;;;;;;;1.80;1.80;;;;;21.02;57.20;99520.22;5033564;28;8829;-86
2022/09/07 07:19:39;;;;;;;;;3.20;2.80;;;;;20.96;57.37;99518.28;5032696;28;8814;-86
2022/09/07 07:22:08;;;;;;;;;2.00;2.00;;;;;20.92;57.62;99521.59;5032986;28;8833;-86
2022/09/07 07:24:55;;;;;;;;;1.00;1.00;;;;;20.92;57.47;99527.84;5032924;28;8904;-86
2022/09/07 07:27:23;;;;;;;;;1.00;1.00;;;;;20.95;57.69;99526.63;5032642;28;8818;-86
2022/09/07 07:29:52;;;;;;;;;3.20;3.20;;;;;20.98;57.40;99526.22;5032872;28;8845;-86
2022/09/07 07:32:20;;;;;;;;;4.40;3.20;;;;;21.04;57.27;99528.13;5033403;28;9004;-86
2022/09/07 07:34:48;;;;;;;;;2.00;2.00;;;;;21.14;57.20;99534.03;5032819;28;8838;-86
2022/09/07 07:37:16;;;;;;;;;2.40;1.00;;;;;21.22;57.13;99533.88;5034525;28;8822;-86
2022/09/07 07:39:43;;;;;;;;;1.00;1.00;;;;;21.24;57.15;99539.91;5035926;28;8821;-86
2022/09/07 07:42:31;;;;;;;;;0.00;0.00;;;;;21.30;56.67;99537.25;5036239;28;8850;-86
2022/09/07 07:44:59;;;;;;;;;1.00;1.00;;;;;21.34;56.93;99535.81;5036058;28;8838;-86
2022/09/07 07:47:47;;;;;;;;;1.00;1.00;;;;;21.42;56.70;99532.13;5036044;28;8918;-85
2022/09/07 07:50:15;;;;;;;;;1.00;1.00;;;;;21.47;57.07;99527.75;5035840;28;8826;-86
2022/09/07 07:52:59;;;;;;;;;1.00;1.00;;;;;21.55;56.53;99515.91;5036004;28;8830;-86
2022/09/07 07:55:47;;;;;;;;;3.20;1.40;;;;;21.64;56.50;99525.53;5035753;28;8866;-86
2022/09/07 07:58:15;;;;;;;;;1.00;1.00;;;;;21.72;56.69;99526.22;5036130;28;8901;-86
2022/09/07 08:00:43;;;;;;;;;1.00;0.20;;;;;21.79;56.45;99523.53;5035449;28;8830;-86
2022/09/07 08:03:21;;;;;;;;;2.00;2.00;;;;;21.91;56.67;99532.75;5035591;28;8838;-86
2022/09/07 08:05:49;;;;;;;;;1.00;1.00;;;;;22.01;56.75;99539.44;5035947;28;8832;-85
2022/09/07 08:08:17;;;;;;;;;1.20;1.20;;;;;22.15;56.12;99543.06;5034951;28;8838;-85
2022/09/07 08:10:46;;;;;;;;;1.40;1.40;;;;;22.30;55.83;99543.72;5036007;28;8832;-85
2022/09/07 08:13:14;;;;;;;;;1.80;1.00;;;;;22.49;55.54;99543.78;5035484;28;8841;-85
2022/09/07 08:15:44;;;;;;;;;1.00;1.00;;;;;22.69;55.22;99552.75;5034973;28;8838;-85
2022/09/07 08:18:13;;;;;;;;;1.20;1.00;;;;;22.73;55.18;99558.59;5035230;28;8898;-85
2022/09/07 08:20:41;;;;;;;;;1.00;1.00;;;;;22.78;55.19;99565.06;5033780;28;8922;-85
2022/09/07 08:23:09;;;;;;;;;1.00;1.00;;;;;22.81;55.52;99566.53;5035221;28;9558;-84
2022/09/07 08:25:37;;;;;;;;;4.00;4.00;;;;;22.83;55.59;99564.47;5033826;28;8855;-84
2022/09/07 08:28:04;;;;;;;;;1.00;1.00;;;;;22.92;55.60;99568.63;5033922;28;8853;-85
2022/09/07 08:30:32;;;;;;;;;1.00;1.00;;;;;23.07;54.86;99574.69;5034522;28;8825;-85
2022/09/07 08:33:01;;;;;;;;;1.60;1.00;;;;;23.14;55.25;99572.78;5034944;28;8821;-85
2022/09/07 08:35:28;;;;;;;;;1.00;1.00;;;;;23.23;55.02;99582.41;5034194;28;8825;-84
2022/09/07 08:37:56;;;;;;;;;3.00;1.00;;;;;23.32;55.04;99578.41;5035375;28;8822;-84
2022/09/07 08:40:24;;;;;;;;;2.00;2.00;;;;;23.45;54.79;99581.13;5034799;28;8955;-84
2022/09/07 08:42:51;;;;;;;;;1.00;1.00;;;;;23.56;54.01;99583.16;5034627;28;8854;-84
2022/09/07 08:45:19;;;;;;;;;1.00;1.00;;;;;23.63;54.02;99582.13;5034604;28;8934;-84
2022/09/07 08:47:47;;;;;;;;;2.00;2.00;;;;;23.69;53.81;99585.84;5017999;28;9487;-84
2022/09/07 08:50:15;;;;;;;;;1.40;1.00;;;;;23.71;54.05;99586.47;5034525;28;8868;-84
2022/09/07 08:52:43;;;;;;;;;1.00;1.00;;;;;23.78;54.28;99588.13;5035130;28;8841;-84
2022/09/07 08:55:10;;;;;;;;;1.20;1.00;;;;;23.77;54.01;99582.91;5035369;28;8823;-84
2022/09/07 08:57:38;;;;;;;;;1.80;1.00;;;;;23.77;54.05;99583.75;5034829;28;8826;-85
2022/09/07 09:00:06;;;;;;;;;1.60;1.00;;;;;23.83;54.36;99587.47;5035896;28;8832;-84
2022/09/07 09:02:34;;;;;;;;;1.00;1.00;;;;;23.90;53.87;99591.06;5035695;28;8841;-84
2022/09/07 09:05:09;;;;;;;;;1.00;1.00;;;;;24.04;53.33;99579.06;5035135;28;8838;-84
2022/09/07 09:07:46;;;;;;;;;1.00;1.00;;;;;24.23;53.68;99580.81;5034686;28;8960;-84
2022/09/07 09:10:14;;;;;;;;;1.40;1.40;;;;;24.46;53.10;99576.50;5035329;28;8833;-84
2022/09/07 09:12:42;;;;;;;;;1.00;1.00;;;;;24.67;52.94;99576.19;5035401;28;8845;-84
2022/09/07 09:15:10;;;;;;;;;2.00;2.00;;;;;24.90;51.85;99581.88;5034754;28;8834;-84
2022/09/07 09:17:38;;;;;;;;;1.00;1.00;;;;;24.95;51.72;99583.94;5034920;28;8838;-84
2022/09/07 09:20:06;;;;;;;;;2.00;2.00;;;;;24.97;52.33;99588.09;5034996;28;8826;-84
2022/09/07 09:22:35;;;;;;;;;1.40;1.40;;;;;24.95;52.21;99579.28;5034983;28;8937;-84
2022/09/07 09:25:02;;;;;;;;;1.00;1.00;;;;;24.98;52.40;99567.97;5034844;28;8898;-84
2022/09/07 09:27:30;;;;;;;;;1.20;1.20;;;;;25.06;52.64;99578.59;5034518;28;8833;-84
2022/09/07 09:29:58;;;;;;;;;1.00;1.00;;;;;25.05;51.97;99571.47;5034226;28;8818;-84
2022/09/07 09:32:26;;;;;;;;;2.00;2.00;;;;;25.04;52.03;99574.41;5035112;28;8837;-84
2022/09/07 09:34:54;;;;;;;;;1.20;1.20;;;;;25.05;52.01;99576.06;5034502;28;8834;-84
2022/09/07 09:37:21;;;;;;;;;1.20;1.20;;;;;25.13;52.55;99573.06;5034464;28;9325;-84
2022/09/07 09:39:49;;;;;;;;;1.40;1.40;;;;;25.17;51.75;99574.28;5034755;28;8834;-84
2022/09/07 09:42:22;;;;;;;;;2.00;1.80;;;;;25.23;52.37;99574.25;5034510;28;8853;-84
2022/09/07 09:44:50;;;;;;;;;2.40;2.40;;;;;25.44;51.45;99575.72;5034083;28;8809;-84
2022/09/07 09:47:18;;;;;;;;;2.00;2.00;;;;;25.71;50.59;99572.44;5034311;28;8837;-84
2022/09/07 09:50:01;;;;;;;;;1.60;1.00;;;;;25.97;50.48;99578.47;5034042;28;8946;-84
2022/09/07 09:52:29;;;;;;;;;1.00;1.00;;;;;26.06;50.77;99574.38;5033960;28;8830;-84
2022/09/07 09:55:02;;;;;;;;;2.00;1.00;;;;;26.24;50.04;99568.00;5037874;28;8857;-85
2022/09/07 09:57:50;;;;;;;;;1.00;1.00;;;;;26.32;49.65;99565.81;5049926;28;8862;-85
2022/09/07 10:00:38;;;;;;;;;1.00;1.00;;;;;26.48;49.77;99565.13;5042317;28;8865;-85
2022/09/07 10:03:26;;;;;;;;;1.00;1.00;;;;;26.41;49.72;99566.31;5033656;28;8872;-86
2022/09/07 10:06:14;;;;;;;;;1.60;1.40;;;;;26.39;49.96;99563.81;5033417;28;8849;-85
2022/09/07 10:08:42;;;;;;;;;0.60;0.60;;;;;26.45;49.91;99556.56;5033655;28;8834;-85
2022/09/07 10:11:11;;;;;;;;;2.00;1.00;;;;;26.75;49.38;99569.19;5032282;28;8838;-85
2022/09/07 10:13:38;;;;;;;;;1.00;1.00;;;;;27.48;48.11;99558.66;5033059;28;8840;-85
2022/09/07 10:16:06;;;;;;;;;1.80;1.80;;;;;28.21;46.71;99551.47;5033610;28;8840;-85
2022/09/07 10:18:35;;;;;;;;;1.00;1.00;;;;;28.77;45.57;99549.53;5033354;28;8822;-85
2022/09/07 10:21:03;;;;;;;;;1.00;1.00;;;;;28.54;46.42;99544.19;5033075;28;8853;-85
2022/09/07 10:23:30;;;;;;;;;1.00;1.00;;;;;28.35;46.93;99541.88;5033740;28;8830;-85
2022/09/07 10:25:58;;;;;;;;;1.00;1.00;;;;;28.40;46.27;99550.22;5033084;28;8822;-85
2022/09/07 10:28:26;;;;;;;;;0.00;0.00;;;;;28.43;46.38;99553.28;5033214;28;8860;-85
2022/09/07 10:31:13;;;;;;;;;1.40;1.40;;;;;28.49;46.57;99543.25;5033211;28;8825;-85
2022/09/07 10:33:43;;;;;;;;;1.00;1.00;;;;;29.13;45.38;99542.72;5032324;28;8930;-85
2022/09/07 10:36:31;;;;;;;;;1.00;1.00;;;;;30.18;44.03;99534.03;5032999;28;8849;-85
2022/09/07 10:38:59;;;;;;;;;0.00;0.00;;;;;30.49;43.39;99535.19;5033335;28;8830;-85
2022/09/07 10:41:26;;;;;;;;;2.00;1.00;;;;;30.37;43.19;99543.59;5031519;28;8837;-85
2022/09/07 10:43:54;;;;;;;;;1.00;1.00;;;;;30.58;43.28;99535.28;5031817;28;8834;-85
2022/09/07 10:46:22;;;;;;;;;1.60;1.60;;;;;30.78;43.00;99540.16;5033019;28;8818;-85
2022/09/07 10:49:09;;;;;;;;;2.00;2.00;;;;;30.48;43.41;99539.84;5031444;28;9498;-85
2022/09/07 10:51:37;;;;;;;;;2.00;2.00;;;;;30.86;42.91;99542.41;5032063;28;8856;-85
2022/09/07 10:54:05;;;;;;;;;3.00;3.00;;;;;31.10;42.34;99527.22;5033482;28;9484;-85
2022/09/07 10:56:52;;;;;;;;;2.00;2.00;;;;;30.83;42.95;99545.72;5032645;28;8885;-86
2022/09/07 10:59:20;;;;;;;;;1.80;1.00;;;;;30.59;43.29;99542.44;5032850;28;8834;-85
2022/09/07 11:01:48;;;;;;;;;2.00;2.00;;;;;30.33;44.14;99541.63;5032605;28;8948;-85
2022/09/07 11:04:16;;;;;;;;;2.40;2.40;;;;;29.95;44.62;99539.78;5033251;28;8834;-85
2022/09/07 11:06:44;;;;;;;;;1.40;1.40;;;;;29.54;45.41;99545.84;5033115;28;8833;-85
2022/09/07 11:09:11;;;;;;;;;1.80;1.40;;;;;29.27;46.08;99541.31;5033079;28;8849;-85
2022/09/07 11:11:44;;;;;;;;;2.00;2.00;;;;;29.67;44.63;99537.25;5033649;28;8829;-85
2022/09/07 11:14:29;;;;;;;;;2.00;2.00;;;;;29.73;44.70;99538.13;5036212;28;8845;-85
2022/09/07 11:16:56;;;;;;;;;1.00;0.00;;;;;30.07;44.12;99531.38;5037213;28;8868;-85
2022/09/07 11:19:24;;;;;;;;;3.00;3.00;;;;;30.50;43.50;99539.59;5036484;28;8955;-85
2022/09/07 11:22:07;;;;;;;;;3.80;3.20;;;;;30.13;43.93;99535.91;5036639;28;8833;-85
2022/09/07 11:24:35;;;;;;;;;2.00;2.00;;;;;29.58;44.95;99533.25;5035983;28;8869;-86
2022/09/07 11:27:03;;;;;;;;;3.40;3.20;;;;;29.07;46.00;99541.81;5036311;28;8852;-85
2022/09/07 11:29:30;;;;;;;;;3.40;3.00;;;;;28.53;47.05;99550.72;5036569;28;8854;-85
2022/09/07 11:31:59;;;;;;;;;2.40;2.40;;;;;28.08;47.75;99546.28;5036223;28;8829;-85
2022/09/07 11:34:27;;;;;;;;;2.00;2.00;;;;;27.68;48.20;99554.44;5036711;28;8871;-85
2022/09/07 11:36:54;;;;;;;;;2.60;2.00;;;;;27.35;48.71;99551.53;5036051;28;8821;-85
2022/09/07 11:39:22;;;;;;;;;3.20;3.00;;;;;27.02;49.62;99550.44;5035885;28;8914;-85
2022/09/07 11:41:51;;;;;;;;;3.00;2.80;;;;;26.74;50.32;99559.31;5036119;28;8822;-85
2022/09/07 11:44:19;;;;;;;;;2.40;2.40;;;;;26.53;50.32;99556.28;5039435;28;8842;-85
2022/09/07 11:46:46;;;;;;;;;3.20;3.00;;;;;26.37;50.09;99555.03;5039107;28;8822;-85
2022/09/07 11:49:14;;;;;;;;;2.60;2.60;;;;;26.24;50.53;99549.75;5039396;28;8990;-85
2022/09/07 11:51:42;;;;;;;;;3.00;3.00;;;;;26.13;51.01;99558.75;5036027;28;8844;-85